sensor_id;sensor_type;location;lat;lon;timestamp;P1;durP1;ratioP1;P2;durP2;ratioP2
60370;SDS011;48550;40.588;49.684;2023-01-04T00:01:19;25.60;;;11.45;;
60370;SDS011;48550;40.588;49.684;2023-01-04T00:03:46;27.63;;;13.32;;
60370;SDS011;48550;40.588;49.684;2023-01-04T00:06:13;29.10;;;12.98;;
60370;SDS011;48550;40.588;49.684;2023-01-04T00:08:39;27.00;;;13.07;;
60370;SDS011;48550;40.588;49.684;2023-01-04T00:11:15;27.00;;;12.80;;
60370;SDS011;48550;40.588;49.684;2023-01-04T00:13:45;25.00;;;12.90;;
60370;SDS011;48550;40.588;49.684;2023-01-04T00:16:13;26.70;;;13.40;;
60370;SDS011;48550;40.588;49.684;2023-01-04T00:18:41;43.22;;;14.27;;
60370;SDS011;48550;40.588;49.684;2023-01-04T00:23:34;25.75;;;13.25;;
60370;SDS011;48550;40.588;49.684;2023-01-04T00:26:00;27.45;;;13.02;;
60370;SDS011;48550;40.588;49.684;2023-01-04T00:28:26;24.38;;;13.38;;
60370;SDS011;48550;40.588;49.684;2023-01-04T00:30:51;26.83;;;13.65;;
60370;SDS011;48550;40.588;49.684;2023-01-04T00:33:17;32.25;;;12.32;;
60370;SDS011;48550;40.588;49.684;2023-01-04T00:35:42;24.83;;;13.40;;
60370;SDS011;48550;40.588;49.684;2023-01-04T00:38:08;26.08;;;12.80;;
60370;SDS011;48550;40.588;49.684;2023-01-04T00:40:34;23.27;;;12.52;;
60370;SDS011;48550;40.588;49.684;2023-01-04T00:42:59;27.23;;;13.07;;
60370;SDS011;48550;40.588;49.684;2023-01-04T00:45:25;28.33;;;13.55;;
60370;SDS011;48550;40.588;49.684;2023-01-04T00:47:51;26.65;;;12.88;;
60370;SDS011;48550;40.588;49.684;2023-01-04T00:50:16;24.13;;;12.60;;
60370;SDS011;48550;40.588;49.684;2023-01-04T00:52:42;21.13;;;10.00;;
60370;SDS011;48550;40.588;49.684;2023-01-04T00:55:08;25.17;;;12.32;;
60370;SDS011;48550;40.588;49.684;2023-01-04T00:57:34;23.52;;;12.25;;
60370;SDS011;48550;40.588;49.684;2023-01-04T00:59:59;20.50;;;11.32;;
60370;SDS011;48550;40.588;49.684;2023-01-04T01:02:25;32.22;;;11.10;;
60370;SDS011;48550;40.588;49.684;2023-01-04T01:04:51;25.00;;;12.05;;
60370;SDS011;48550;40.588;49.684;2023-01-04T01:07:16;24.42;;;12.05;;
60370;SDS011;48550;40.588;49.684;2023-01-04T01:09:42;27.63;;;12.82;;
60370;SDS011;48550;40.588;49.684;2023-01-04T01:12:08;24.85;;;12.68;;
60370;SDS011;48550;40.588;49.684;2023-01-04T01:14:33;26.27;;;12.32;;
60370;SDS011;48550;40.588;49.684;2023-01-04T01:16:59;22.25;;;10.32;;
60370;SDS011;48550;40.588;49.684;2023-01-04T01:19:28;21.85;;;9.93;;
60370;SDS011;48550;40.588;49.684;2023-01-04T01:21:54;23.55;;;12.98;;
60370;SDS011;48550;40.588;49.684;2023-01-04T01:24:21;22.98;;;11.30;;
60370;SDS011;48550;40.588;49.684;2023-01-04T01:26:46;34.67;;;13.00;;
60370;SDS011;48550;40.588;49.684;2023-01-04T01:29:12;23.05;;;10.63;;
60370;SDS011;48550;40.588;49.684;2023-01-04T01:31:39;21.33;;;12.07;;
60370;SDS011;48550;40.588;49.684;2023-01-04T01:34:05;29.90;;;11.48;;
60370;SDS011;48550;40.588;49.684;2023-01-04T01:36:30;28.83;;;11.88;;
60370;SDS011;48550;40.588;49.684;2023-01-04T01:38:56;34.00;;;12.55;;
60370;SDS011;48550;40.588;49.684;2023-01-04T01:41:23;23.40;;;12.00;;
60370;SDS011;48550;40.588;49.684;2023-01-04T01:43:54;24.77;;;12.85;;
60370;SDS011;48550;40.588;49.684;2023-01-04T01:48:59;25.52;;;12.95;;
60370;SDS011;48550;40.588;49.684;2023-01-04T01:51:28;26.58;;;12.98;;
60370;SDS011;48550;40.588;49.684;2023-01-04T01:54:18;27.38;;;12.43;;
60370;SDS011;48550;40.588;49.684;2023-01-04T01:56:45;21.63;;;11.95;;
60370;SDS011;48550;40.588;49.684;2023-01-04T01:59:15;25.05;;;12.60;;
60370;SDS011;48550;40.588;49.684;2023-01-04T02:01:42;26.15;;;13.55;;
60370;SDS011;48550;40.588;49.684;2023-01-04T02:04:08;30.33;;;12.90;;
60370;SDS011;48550;40.588;49.684;2023-01-04T02:06:37;26.83;;;12.93;;
60370;SDS011;48550;40.588;49.684;2023-01-04T02:09:05;22.48;;;11.27;;
60370;SDS011;48550;40.588;49.684;2023-01-04T02:11:32;23.60;;;12.00;;
60370;SDS011;48550;40.588;49.684;2023-01-04T02:13:57;24.02;;;11.88;;
60370;SDS011;48550;40.588;49.684;2023-01-04T02:31:37;26.63;;;11.95;;
60370;SDS011;48550;40.588;49.684;2023-01-04T02:39:51;26.17;;;12.70;;
60370;SDS011;48550;40.588;49.684;2023-01-04T02:42:55;23.80;;;12.57;;
60370;SDS011;48550;40.588;49.684;2023-01-04T02:45:55;24.70;;;12.13;;
60370;SDS011;48550;40.588;49.684;2023-01-04T02:48:33;25.60;;;10.93;;
60370;SDS011;48550;40.588;49.684;2023-01-04T02:51:32;28.73;;;12.48;;
60370;SDS011;48550;40.588;49.684;2023-01-04T02:54:01;33.22;;;12.73;;
60370;SDS011;48550;40.588;49.684;2023-01-04T03:01:50;27.45;;;12.02;;
60370;SDS011;48550;40.588;49.684;2023-01-04T03:16:12;25.63;;;12.63;;
60370;SDS011;48550;40.588;49.684;2023-01-04T03:18:43;26.42;;;12.18;;
60370;SDS011;48550;40.588;49.684;2023-01-04T03:21:14;23.23;;;12.68;;
60370;SDS011;48550;40.588;49.684;2023-01-04T03:23:43;33.35;;;13.07;;
60370;SDS011;48550;40.588;49.684;2023-01-04T03:29:18;27.63;;;12.90;;
60370;SDS011;48550;40.588;49.684;2023-01-04T03:32:15;25.35;;;12.63;;
60370;SDS011;48550;40.588;49.684;2023-01-04T03:35:06;30.35;;;13.05;;
60370;SDS011;48550;40.588;49.684;2023-01-04T03:37:52;36.67;;;11.88;;
60370;SDS011;48550;40.588;49.684;2023-01-04T03:41:08;22.95;;;11.77;;
60370;SDS011;48550;40.588;49.684;2023-01-04T03:47:12;27.20;;;12.52;;
60370;SDS011;48550;40.588;49.684;2023-01-04T03:50:09;34.53;;;13.85;;
60370;SDS011;48550;40.588;49.684;2023-01-04T03:52:57;26.10;;;11.05;;
60370;SDS011;48550;40.588;49.684;2023-01-04T03:55:24;33.38;;;14.05;;
60370;SDS011;48550;40.588;49.684;2023-01-04T03:57:53;26.27;;;12.02;;
60370;SDS011;48550;40.588;49.684;2023-01-04T04:00:19;27.73;;;13.10;;
60370;SDS011;48550;40.588;49.684;2023-01-04T04:02:46;28.73;;;11.35;;
60370;SDS011;48550;40.588;49.684;2023-01-04T04:05:16;30.30;;;13.02;;
60370;SDS011;48550;40.588;49.684;2023-01-04T04:08:02;22.02;;;10.13;;
60370;SDS011;48550;40.588;49.684;2023-01-04T04:10:46;26.23;;;12.43;;
60370;SDS011;48550;40.588;49.684;2023-01-04T04:13:12;28.70;;;11.50;;
60370;SDS011;48550;40.588;49.684;2023-01-04T04:15:37;33.95;;;13.75;;
60370;SDS011;48550;40.588;49.684;2023-01-04T04:18:04;30.13;;;12.25;;
60370;SDS011;48550;40.588;49.684;2023-01-04T04:20:30;24.67;;;12.52;;
60370;SDS011;48550;40.588;49.684;2023-01-04T04:22:56;27.35;;;12.40;;
60370;SDS011;48550;40.588;49.684;2023-01-04T04:25:21;25.10;;;12.57;;
60370;SDS011;48550;40.588;49.684;2023-01-04T04:27:47;20.35;;;11.35;;
60370;SDS011;48550;40.588;49.684;2023-01-04T04:30:13;28.95;;;11.57;;
60370;SDS011;48550;40.588;49.684;2023-01-04T04:32:39;31.27;;;13.18;;
60370;SDS011;48550;40.588;49.684;2023-01-04T04:35:04;30.98;;;13.63;;
60370;SDS011;48550;40.588;49.684;2023-01-04T04:37:33;22.05;;;11.40;;
60370;SDS011;48550;40.588;49.684;2023-01-04T04:39:59;23.55;;;11.82;;
60370;SDS011;48550;40.588;49.684;2023-01-04T04:42:25;28.25;;;11.82;;
60370;SDS011;48550;40.588;49.684;2023-01-04T04:44:51;25.20;;;12.13;;
60370;SDS011;48550;40.588;49.684;2023-01-04T04:47:17;25.25;;;11.95;;
60370;SDS011;48550;40.588;49.684;2023-01-04T04:49:43;23.58;;;12.20;;
60370;SDS011;48550;40.588;49.684;2023-01-04T04:52:08;31.75;;;12.02;;
60370;SDS011;48550;40.588;49.684;2023-01-04T04:54:34;20.70;;;11.35;;
60370;SDS011;48550;40.588;49.684;2023-01-04T04:57:00;25.85;;;11.23;;
60370;SDS011;48550;40.588;49.684;2023-01-04T04:59:25;20.60;;;9.98;;
60370;SDS011;48550;40.588;49.684;2023-01-04T05:01:51;25.52;;;11.25;;
60370;SDS011;48550;40.588;49.684;2023-01-04T05:04:17;26.05;;;11.23;;
60370;SDS011;48550;40.588;49.684;2023-01-04T05:06:44;22.65;;;10.07;;
60370;SDS011;48550;40.588;49.684;2023-01-04T05:09:11;26.13;;;10.93;;
60370;SDS011;48550;40.588;49.684;2023-01-04T05:11:38;21.92;;;10.63;;
60370;SDS011;48550;40.588;49.684;2023-01-04T05:14:22;23.30;;;10.15;;
60370;SDS011;48550;40.588;49.684;2023-01-04T05:16:48;21.83;;;10.07;;
60370;SDS011;48550;40.588;49.684;2023-01-04T05:19:14;19.77;;;10.88;;
60370;SDS011;48550;40.588;49.684;2023-01-04T05:21:40;24.70;;;10.63;;
60370;SDS011;48550;40.588;49.684;2023-01-04T05:24:06;23.10;;;11.55;;
60370;SDS011;48550;40.588;49.684;2023-01-04T05:26:32;21.92;;;10.57;;
60370;SDS011;48550;40.588;49.684;2023-01-04T05:28:58;19.33;;;10.20;;
60370;SDS011;48550;40.588;49.684;2023-01-04T05:31:24;21.55;;;10.38;;
60370;SDS011;48550;40.588;49.684;2023-01-04T05:33:50;22.73;;;8.82;;
60370;SDS011;48550;40.588;49.684;2023-01-04T05:36:15;18.85;;;9.07;;
60370;SDS011;48550;40.588;49.684;2023-01-04T05:38:41;21.55;;;9.10;;
60370;SDS011;48550;40.588;49.684;2023-01-04T05:41:07;15.45;;;7.97;;
60370;SDS011;48550;40.588;49.684;2023-01-04T05:43:52;17.52;;;8.75;;
60370;SDS011;48550;40.588;49.684;2023-01-04T05:46:18;14.57;;;8.55;;
60370;SDS011;48550;40.588;49.684;2023-01-04T05:48:44;18.35;;;8.43;;
60370;SDS011;48550;40.588;49.684;2023-01-04T05:51:10;16.60;;;9.43;;
60370;SDS011;48550;40.588;49.684;2023-01-04T05:53:35;16.88;;;9.45;;
60370;SDS011;48550;40.588;49.684;2023-01-04T05:56:01;15.73;;;8.73;;
60370;SDS011;48550;40.588;49.684;2023-01-04T05:58:27;22.23;;;9.23;;
60370;SDS011;48550;40.588;49.684;2023-01-04T06:00:53;17.33;;;9.10;;
60370;SDS011;48550;40.588;49.684;2023-01-04T06:03:18;17.65;;;9.90;;
60370;SDS011;48550;40.588;49.684;2023-01-04T06:05:48;17.70;;;8.55;;
60370;SDS011;48550;40.588;49.684;2023-01-04T06:08:15;18.88;;;9.40;;
60370;SDS011;48550;40.588;49.684;2023-01-04T06:10:40;21.23;;;9.60;;
60370;SDS011;48550;40.588;49.684;2023-01-04T06:13:06;14.25;;;9.60;;
60370;SDS011;48550;40.588;49.684;2023-01-04T06:15:32;18.30;;;10.18;;
60370;SDS011;48550;40.588;49.684;2023-01-04T06:17:57;20.83;;;9.07;;
60370;SDS011;48550;40.588;49.684;2023-01-04T06:20:23;18.50;;;9.80;;
60370;SDS011;48550;40.588;49.684;2023-01-04T06:22:49;25.25;;;11.13;;
60370;SDS011;48550;40.588;49.684;2023-01-04T06:25:14;22.52;;;9.80;;
60370;SDS011;48550;40.588;49.684;2023-01-04T06:27:41;17.40;;;9.40;;
60370;SDS011;48550;40.588;49.684;2023-01-04T06:30:07;15.30;;;8.27;;
60370;SDS011;48550;40.588;49.684;2023-01-04T06:32:33;16.80;;;8.27;;
60370;SDS011;48550;40.588;49.684;2023-01-04T06:34:58;17.77;;;8.70;;
60370;SDS011;48550;40.588;49.684;2023-01-04T06:37:24;19.70;;;10.82;;
60370;SDS011;48550;40.588;49.684;2023-01-04T06:39:50;24.63;;;12.98;;
60370;SDS011;48550;40.588;49.684;2023-01-04T06:42:16;20.98;;;13.95;;
60370;SDS011;48550;40.588;49.684;2023-01-04T06:45:01;23.95;;;14.60;;
60370;SDS011;48550;40.588;49.684;2023-01-04T06:47:26;29.00;;;15.75;;
60370;SDS011;48550;40.588;49.684;2023-01-04T06:49:52;25.38;;;14.73;;
60370;SDS011;48550;40.588;49.684;2023-01-04T06:52:18;25.80;;;15.52;;
60370;SDS011;48550;40.588;49.684;2023-01-04T06:54:43;27.10;;;15.50;;
60370;SDS011;48550;40.588;49.684;2023-01-04T06:57:09;27.52;;;16.17;;
60370;SDS011;48550;40.588;49.684;2023-01-04T06:59:35;27.50;;;15.65;;
60370;SDS011;48550;40.588;49.684;2023-01-04T07:02:01;24.23;;;14.73;;
60370;SDS011;48550;40.588;49.684;2023-01-04T07:04:27;26.65;;;15.15;;
60370;SDS011;48550;40.588;49.684;2023-01-04T07:06:52;31.33;;;18.05;;
60370;SDS011;48550;40.588;49.684;2023-01-04T07:09:18;31.83;;;16.83;;
60370;SDS011;48550;40.588;49.684;2023-01-04T07:11:44;31.60;;;17.23;;
60370;SDS011;48550;40.588;49.684;2023-01-04T07:14:09;28.65;;;16.80;;
60370;SDS011;48550;40.588;49.684;2023-01-04T07:16:35;35.03;;;16.83;;
60370;SDS011;48550;40.588;49.684;2023-01-04T07:19:01;32.58;;;16.92;;
60370;SDS011;48550;40.588;49.684;2023-01-04T07:21:27;34.65;;;16.30;;
60370;SDS011;48550;40.588;49.684;2023-01-04T07:23:54;27.70;;;15.50;;
60370;SDS011;48550;40.588;49.684;2023-01-04T07:26:20;34.80;;;16.75;;
60370;SDS011;48550;40.588;49.684;2023-01-04T07:28:45;31.95;;;16.20;;
60370;SDS011;48550;40.588;49.684;2023-01-04T07:31:29;35.22;;;16.63;;
60370;SDS011;48550;40.588;49.684;2023-01-04T07:33:55;38.70;;;17.60;;
60370;SDS011;48550;40.588;49.684;2023-01-04T07:36:21;31.63;;;16.02;;
60370;SDS011;48550;40.588;49.684;2023-01-04T07:38:46;28.65;;;15.10;;
60370;SDS011;48550;40.588;49.684;2023-01-04T07:41:12;27.73;;;13.98;;
60370;SDS011;48550;40.588;49.684;2023-01-04T07:43:38;29.50;;;15.90;;
60370;SDS011;48550;40.588;49.684;2023-01-04T07:46:03;30.58;;;14.88;;
60370;SDS011;48550;40.588;49.684;2023-01-04T07:48:29;32.70;;;14.48;;
60370;SDS011;48550;40.588;49.684;2023-01-04T07:50:55;29.25;;;13.77;;
60370;SDS011;48550;40.588;49.684;2023-01-04T07:53:21;32.00;;;15.52;;
60370;SDS011;48550;40.588;49.684;2023-01-04T07:55:46;27.65;;;14.70;;
60370;SDS011;48550;40.588;49.684;2023-01-04T07:58:12;29.08;;;14.45;;
60370;SDS011;48550;40.588;49.684;2023-01-04T08:00:38;22.70;;;12.88;;
60370;SDS011;48550;40.588;49.684;2023-01-04T08:03:04;30.98;;;13.55;;
60370;SDS011;48550;40.588;49.684;2023-01-04T08:05:33;27.52;;;13.68;;
60370;SDS011;48550;40.588;49.684;2023-01-04T08:07:59;27.42;;;13.05;;
60370;SDS011;48550;40.588;49.684;2023-01-04T08:10:25;26.73;;;13.27;;
60370;SDS011;48550;40.588;49.684;2023-01-04T08:12:51;35.22;;;16.40;;
60370;SDS011;48550;40.588;49.684;2023-01-04T08:15:16;30.02;;;13.93;;
60370;SDS011;48550;40.588;49.684;2023-01-04T08:17:42;22.33;;;9.68;;
60370;SDS011;48550;40.588;49.684;2023-01-04T08:20:08;20.95;;;10.65;;
60370;SDS011;48550;40.588;49.684;2023-01-04T08:22:34;29.83;;;12.30;;
60370;SDS011;48550;40.588;49.684;2023-01-04T08:24:59;22.67;;;11.43;;
60370;SDS011;48550;40.588;49.684;2023-01-04T08:27:25;25.48;;;11.52;;
60370;SDS011;48550;40.588;49.684;2023-01-04T08:29:51;28.48;;;12.32;;
60370;SDS011;48550;40.588;49.684;2023-01-04T08:32:16;23.45;;;11.07;;
60370;SDS011;48550;40.588;49.684;2023-01-04T08:34:42;18.30;;;10.07;;
60370;SDS011;48550;40.588;49.684;2023-01-04T08:37:08;14.10;;;8.52;;
60370;SDS011;48550;40.588;49.684;2023-01-04T08:39:33;19.17;;;9.93;;
60370;SDS011;48550;40.588;49.684;2023-01-04T08:42:00;19.63;;;10.10;;
60370;SDS011;48550;40.588;49.684;2023-01-04T08:44:26;18.92;;;9.63;;
60370;SDS011;48550;40.588;49.684;2023-01-04T08:46:52;15.85;;;8.85;;
60370;SDS011;48550;40.588;49.684;2023-01-04T08:49:19;18.77;;;9.27;;
60370;SDS011;48550;40.588;49.684;2023-01-04T08:51:46;19.58;;;9.65;;
60370;SDS011;48550;40.588;49.684;2023-01-04T08:54:13;19.95;;;10.02;;
60370;SDS011;48550;40.588;49.684;2023-01-04T08:56:39;15.38;;;8.25;;
60370;SDS011;48550;40.588;49.684;2023-01-04T08:59:05;18.05;;;9.40;;
60370;SDS011;48550;40.588;49.684;2023-01-04T09:01:34;21.60;;;9.95;;
60370;SDS011;48550;40.588;49.684;2023-01-04T09:04:00;17.60;;;9.48;;
60370;SDS011;48550;40.588;49.684;2023-01-04T09:06:26;17.08;;;9.70;;
60370;SDS011;48550;40.588;49.684;2023-01-04T09:08:54;18.10;;;9.77;;
60370;SDS011;48550;40.588;49.684;2023-01-04T09:11:21;17.10;;;9.27;;
60370;SDS011;48550;40.588;49.684;2023-01-04T09:13:48;19.75;;;10.77;;
60370;SDS011;48550;40.588;49.684;2023-01-04T09:16:18;16.60;;;9.32;;
60370;SDS011;48550;40.588;49.684;2023-01-04T09:18:44;19.10;;;10.52;;
60370;SDS011;48550;40.588;49.684;2023-01-04T09:21:12;15.88;;;10.20;;
60370;SDS011;48550;40.588;49.684;2023-01-04T09:23:39;18.30;;;9.13;;
60370;SDS011;48550;40.588;49.684;2023-01-04T09:26:06;17.33;;;9.27;;
60370;SDS011;48550;40.588;49.684;2023-01-04T09:28:33;23.17;;;11.50;;
60370;SDS011;48550;40.588;49.684;2023-01-04T09:31:10;23.60;;;11.45;;
60370;SDS011;48550;40.588;49.684;2023-01-04T09:33:43;21.98;;;9.15;;
60370;SDS011;48550;40.588;49.684;2023-01-04T09:36:10;16.90;;;9.27;;
60370;SDS011;48550;40.588;49.684;2023-01-04T09:38:38;20.63;;;10.13;;
60370;SDS011;48550;40.588;49.684;2023-01-04T09:43:57;19.35;;;9.40;;
60370;SDS011;48550;40.588;49.684;2023-01-04T09:46:33;17.50;;;9.18;;
60370;SDS011;48550;40.588;49.684;2023-01-04T09:51:42;19.55;;;9.32;;
60370;SDS011;48550;40.588;49.684;2023-01-04T09:54:31;18.35;;;9.57;;
60370;SDS011;48550;40.588;49.684;2023-01-04T09:57:07;19.45;;;10.48;;
60370;SDS011;48550;40.588;49.684;2023-01-04T09:59:44;20.33;;;9.82;;
60370;SDS011;48550;40.588;49.684;2023-01-04T10:02:14;22.38;;;10.25;;
60370;SDS011;48550;40.588;49.684;2023-01-04T10:04:50;14.68;;;9.02;;
60370;SDS011;48550;40.588;49.684;2023-01-04T10:07:18;17.05;;;9.27;;
60370;SDS011;48550;40.588;49.684;2023-01-04T10:09:53;16.80;;;9.43;;
60370;SDS011;48550;40.588;49.684;2023-01-04T10:18:40;19.20;;;9.40;;
60370;SDS011;48550;40.588;49.684;2023-01-04T10:23:57;16.23;;;8.73;;
60370;SDS011;48550;40.588;49.684;2023-01-04T10:26:45;16.55;;;9.13;;
60370;SDS011;48550;40.588;49.684;2023-01-04T10:32:15;15.93;;;8.23;;
60370;SDS011;48550;40.588;49.684;2023-01-04T10:34:42;21.98;;;8.90;;
60370;SDS011;48550;40.588;49.684;2023-01-04T10:39:38;15.88;;;9.63;;
60370;SDS011;48550;40.588;49.684;2023-01-04T10:42:13;17.77;;;9.55;;
60370;SDS011;48550;40.588;49.684;2023-01-04T10:50:36;20.55;;;10.05;;
60370;SDS011;48550;40.588;49.684;2023-01-04T10:53:11;17.08;;;9.43;;
60370;SDS011;48550;40.588;49.684;2023-01-04T10:55:52;17.48;;;9.00;;
60370;SDS011;48550;40.588;49.684;2023-01-04T10:58:28;17.08;;;9.10;;
60370;SDS011;48550;40.588;49.684;2023-01-04T11:01:03;18.67;;;9.55;;
60370;SDS011;48550;40.588;49.684;2023-01-04T11:03:34;21.90;;;9.35;;
60370;SDS011;48550;40.588;49.684;2023-01-04T11:06:07;18.90;;;9.05;;
60370;SDS011;48550;40.588;49.684;2023-01-04T11:08:48;19.77;;;10.68;;
60370;SDS011;48550;40.588;49.684;2023-01-04T11:11:23;18.10;;;9.27;;
60370;SDS011;48550;40.588;49.684;2023-01-04T11:13:52;14.25;;;7.75;;
60370;SDS011;48550;40.588;49.684;2023-01-04T11:16:18;20.95;;;9.10;;
60370;SDS011;48550;40.588;49.684;2023-01-04T11:18:44;17.25;;;8.75;;
60370;SDS011;48550;40.588;49.684;2023-01-04T11:21:13;14.55;;;8.43;;
60370;SDS011;48550;40.588;49.684;2023-01-04T11:23:41;18.80;;;8.38;;
60370;SDS011;48550;40.588;49.684;2023-01-04T11:26:08;18.80;;;8.75;;
60370;SDS011;48550;40.588;49.684;2023-01-04T11:31:41;19.92;;;8.85;;
60370;SDS011;48550;40.588;49.684;2023-01-04T11:39:21;15.68;;;9.75;;
60370;SDS011;48550;40.588;49.684;2023-01-04T11:41:54;14.88;;;8.52;;
60370;SDS011;48550;40.588;49.684;2023-01-04T11:44:28;16.65;;;8.98;;
60370;SDS011;48550;40.588;49.684;2023-01-04T11:49:44;18.15;;;8.38;;
60370;SDS011;48550;40.588;49.684;2023-01-04T11:54:51;17.48;;;9.38;;
60370;SDS011;48550;40.588;49.684;2023-01-04T11:57:17;16.90;;;8.90;;
60370;SDS011;48550;40.588;49.684;2023-01-04T11:59:44;16.30;;;9.25;;
60370;SDS011;48550;40.588;49.684;2023-01-04T12:04:49;19.88;;;9.13;;
60370;SDS011;48550;40.588;49.684;2023-01-04T12:09:51;18.52;;;8.55;;
60370;SDS011;48550;40.588;49.684;2023-01-04T12:12:17;17.48;;;8.95;;
60370;SDS011;48550;40.588;49.684;2023-01-04T12:14:44;21.25;;;8.85;;
60370;SDS011;48550;40.588;49.684;2023-01-04T12:17:21;17.02;;;8.65;;
60370;SDS011;48550;40.588;49.684;2023-01-04T12:19:50;19.50;;;9.60;;
60370;SDS011;48550;40.588;49.684;2023-01-04T12:22:35;15.80;;;8.52;;
60370;SDS011;48550;40.588;49.684;2023-01-04T12:25:03;21.05;;;8.10;;
60370;SDS011;48550;40.588;49.684;2023-01-04T12:27:33;17.75;;;8.57;;
60370;SDS011;48550;40.588;49.684;2023-01-04T12:30:02;31.65;;;11.80;;
60370;SDS011;48550;40.588;49.684;2023-01-04T12:35:02;20.50;;;10.82;;
60370;SDS011;48550;40.588;49.684;2023-01-04T12:45:41;19.20;;;9.15;;
60370;SDS011;48550;40.588;49.684;2023-01-04T12:51:17;21.98;;;10.82;;
60370;SDS011;48550;40.588;49.684;2023-01-04T12:53:48;24.88;;;10.90;;
60370;SDS011;48550;40.588;49.684;2023-01-04T12:56:14;24.75;;;11.43;;
60370;SDS011;48550;40.588;49.684;2023-01-04T12:58:40;26.42;;;10.45;;
60370;SDS011;48550;40.588;49.684;2023-01-04T13:01:26;21.55;;;10.05;;
60370;SDS011;48550;40.588;49.684;2023-01-04T13:04:02;23.65;;;10.73;;
60370;SDS011;48550;40.588;49.684;2023-01-04T13:06:48;18.38;;;9.55;;
60370;SDS011;48550;40.588;49.684;2023-01-04T13:09:18;42.47;;;22.00;;
60370;SDS011;48550;40.588;49.684;2023-01-04T13:14:17;20.92;;;9.98;;
60370;SDS011;48550;40.588;49.684;2023-01-04T13:19:36;21.83;;;9.40;;
60370;SDS011;48550;40.588;49.684;2023-01-04T13:22:07;25.38;;;10.23;;
60370;SDS011;48550;40.588;49.684;2023-01-04T13:24:41;20.73;;;10.35;;
60370;SDS011;48550;40.588;49.684;2023-01-04T13:27:12;23.92;;;12.10;;
60370;SDS011;48550;40.588;49.684;2023-01-04T13:29:41;31.20;;;14.07;;
60370;SDS011;48550;40.588;49.684;2023-01-04T13:34:56;20.67;;;10.50;;
60370;SDS011;48550;40.588;49.684;2023-01-04T13:37:26;29.05;;;10.55;;
60370;SDS011;48550;40.588;49.684;2023-01-04T13:42:42;21.77;;;10.13;;
60370;SDS011;48550;40.588;49.684;2023-01-04T13:45:31;21.02;;;10.45;;
60370;SDS011;48550;40.588;49.684;2023-01-04T13:48:04;25.25;;;11.65;;
60370;SDS011;48550;40.588;49.684;2023-01-04T13:50:41;20.38;;;9.52;;
60370;SDS011;48550;40.588;49.684;2023-01-04T13:53:18;15.65;;;7.85;;
60370;SDS011;48550;40.588;49.684;2023-01-04T13:55:53;22.23;;;8.88;;
60370;SDS011;48550;40.588;49.684;2023-01-04T13:58:21;21.27;;;7.85;;
60370;SDS011;48550;40.588;49.684;2023-01-04T14:00:49;18.17;;;8.13;;
60370;SDS011;48550;40.588;49.684;2023-01-04T14:03:30;18.27;;;8.13;;
60370;SDS011;48550;40.588;49.684;2023-01-04T14:08:45;21.95;;;9.23;;
60370;SDS011;48550;40.588;49.684;2023-01-04T14:11:42;16.63;;;7.65;;
60370;SDS011;48550;40.588;49.684;2023-01-04T14:14:27;19.38;;;8.10;;
60370;SDS011;48550;40.588;49.684;2023-01-04T14:19:51;26.02;;;8.40;;
60370;SDS011;48550;40.588;49.684;2023-01-04T14:24:51;18.33;;;8.73;;
60370;SDS011;48550;40.588;49.684;2023-01-04T14:27:38;16.77;;;7.93;;
60370;SDS011;48550;40.588;49.684;2023-01-04T14:33:02;21.38;;;9.20;;
60370;SDS011;48550;40.588;49.684;2023-01-04T14:35:42;15.63;;;7.63;;
60370;SDS011;48550;40.588;49.684;2023-01-04T14:38:12;14.77;;;7.05;;
60370;SDS011;48550;40.588;49.684;2023-01-04T14:40:41;19.33;;;7.43;;
60370;SDS011;48550;40.588;49.684;2023-01-04T14:45:55;13.65;;;5.97;;
60370;SDS011;48550;40.588;49.684;2023-01-04T14:48:21;25.67;;;6.40;;
60370;SDS011;48550;40.588;49.684;2023-01-04T14:50:47;19.33;;;6.00;;
60370;SDS011;48550;40.588;49.684;2023-01-04T14:53:12;14.32;;;6.18;;
60370;SDS011;48550;40.588;49.684;2023-01-04T14:55:38;13.13;;;6.03;;
60370;SDS011;48550;40.588;49.684;2023-01-04T14:58:04;10.48;;;5.00;;
60370;SDS011;48550;40.588;49.684;2023-01-04T15:00:30;62.45;;;22.92;;
60370;SDS011;48550;40.588;49.684;2023-01-04T15:02:55;16.27;;;5.90;;
60370;SDS011;48550;40.588;49.684;2023-01-04T15:05:21;14.93;;;5.90;;
60370;SDS011;48550;40.588;49.684;2023-01-04T15:07:47;14.73;;;7.85;;
60370;SDS011;48550;40.588;49.684;2023-01-04T15:10:23;17.83;;;6.47;;
60370;SDS011;48550;40.588;49.684;2023-01-04T15:12:51;13.30;;;5.85;;
60370;SDS011;48550;40.588;49.684;2023-01-04T15:15:17;12.60;;;5.47;;
60370;SDS011;48550;40.588;49.684;2023-01-04T15:17:43;12.50;;;6.13;;
60370;SDS011;48550;40.588;49.684;2023-01-04T15:20:09;12.35;;;6.43;;
60370;SDS011;48550;40.588;49.684;2023-01-04T15:22:36;14.90;;;7.15;;
60370;SDS011;48550;40.588;49.684;2023-01-04T15:25:03;14.30;;;7.50;;
60370;SDS011;48550;40.588;49.684;2023-01-04T15:27:29;16.02;;;7.43;;
60370;SDS011;48550;40.588;49.684;2023-01-04T15:29:55;13.57;;;6.60;;
60370;SDS011;48550;40.588;49.684;2023-01-04T15:32:21;14.63;;;7.13;;
60370;SDS011;48550;40.588;49.684;2023-01-04T15:34:50;20.70;;;7.55;;
60370;SDS011;48550;40.588;49.684;2023-01-04T15:37:16;15.93;;;8.05;;
60370;SDS011;48550;40.588;49.684;2023-01-04T15:39:42;18.88;;;7.40;;
60370;SDS011;48550;40.588;49.684;2023-01-04T15:42:08;14.05;;;6.70;;
60370;SDS011;48550;40.588;49.684;2023-01-04T15:44:53;18.45;;;7.95;;
60370;SDS011;48550;40.588;49.684;2023-01-04T15:47:19;11.68;;;7.22;;
60370;SDS011;48550;40.588;49.684;2023-01-04T15:49:45;13.45;;;6.93;;
60370;SDS011;48550;40.588;49.684;2023-01-04T15:52:11;14.50;;;7.20;;
60370;SDS011;48550;40.588;49.684;2023-01-04T15:54:36;17.75;;;8.52;;
60370;SDS011;48550;40.588;49.684;2023-01-04T15:57:02;16.35;;;7.28;;
60370;SDS011;48550;40.588;49.684;2023-01-04T15:59:28;19.40;;;8.20;;
60370;SDS011;48550;40.588;49.684;2023-01-04T16:01:54;15.02;;;7.50;;
60370;SDS011;48550;40.588;49.684;2023-01-04T16:04:19;18.05;;;7.43;;
60370;SDS011;48550;40.588;49.684;2023-01-04T16:06:45;11.73;;;6.32;;
60370;SDS011;48550;40.588;49.684;2023-01-04T16:09:11;19.73;;;8.30;;
60370;SDS011;48550;40.588;49.684;2023-01-04T16:11:37;15.70;;;7.00;;
60370;SDS011;48550;40.588;49.684;2023-01-04T16:14:22;15.40;;;6.72;;
60370;SDS011;48550;40.588;49.684;2023-01-04T16:16:48;15.20;;;7.88;;
60370;SDS011;48550;40.588;49.684;2023-01-04T16:19:14;15.68;;;7.72;;
60370;SDS011;48550;40.588;49.684;2023-01-04T16:21:40;15.77;;;6.47;;
60370;SDS011;48550;40.588;49.684;2023-01-04T16:24:07;16.45;;;7.82;;
60370;SDS011;48550;40.588;49.684;2023-01-04T16:26:34;18.10;;;8.00;;
60370;SDS011;48550;40.588;49.684;2023-01-04T16:28:59;15.52;;;7.40;;
60370;SDS011;48550;40.588;49.684;2023-01-04T16:31:31;11.98;;;7.00;;
60370;SDS011;48550;40.588;49.684;2023-01-04T16:33:58;12.77;;;7.20;;
60370;SDS011;48550;40.588;49.684;2023-01-04T16:36:23;14.48;;;6.88;;
60370;SDS011;48550;40.588;49.684;2023-01-04T16:38:49;12.85;;;7.18;;